Aviation Digital Data Service (ADDS)

Output produced by METARs form (2352 UTC 31 March 2015)
found at http://aviationweather.gov/adds/metars/
 
KCRG 312341Z 0100/0124 24007KT P6SM SCT050 BKN200 
     FM010700 26006KT P6SM SCT010 BKN200 WS020/30035KT 
     FM011300 27008KT P6SM SCT020 BKN200 
     FM011800 33008KT P6SM VCSH BKN040